createdAt,value
2018-09-20T00:02:05.541Z,19.07
2018-09-20T00:04:35.248Z,19.02
2018-09-20T00:07:05.058Z,19.03
2018-09-20T00:09:34.824Z,19.02
2018-09-20T00:12:04.637Z,19.07
2018-09-20T00:14:34.416Z,19.01
2018-09-20T00:17:04.140Z,18.93
2018-09-20T00:19:33.885Z,18.98
2018-09-20T00:22:03.257Z,18.99
2018-09-20T00:24:33.037Z,18.91
2018-09-20T00:27:02.732Z,18.83
2018-09-20T00:29:32.221Z,18.89
2018-09-20T00:32:01.945Z,18.91
2018-09-20T00:34:31.817Z,18.85
2018-09-20T00:37:01.165Z,18.77
2018-09-20T00:39:30.857Z,18.82
2018-09-20T00:42:00.537Z,18.84
2018-09-20T00:44:30.197Z,18.80
2018-09-20T00:46:59.830Z,18.79
2018-09-20T00:49:29.485Z,18.76
2018-09-20T00:51:59.245Z,18.83
2018-09-20T00:54:28.912Z,18.81
2018-09-20T00:56:58.544Z,18.73
2018-09-20T00:59:28.266Z,18.65
2018-09-20T01:01:57.947Z,18.63
2018-09-20T01:04:27.648Z,18.61
2018-09-20T01:06:57.315Z,18.65
2018-09-20T01:09:27.008Z,18.70
2018-09-20T01:11:56.392Z,18.63
2018-09-20T01:14:26.212Z,18.55
2018-09-20T01:16:55.966Z,18.61
2018-09-20T01:19:25.692Z,18.51
2018-09-20T01:21:55.462Z,18.58
2018-09-20T01:24:25.122Z,18.58
2018-09-20T01:26:54.868Z,18.64
2018-09-20T01:29:24.595Z,18.54
2018-09-20T01:31:54.324Z,18.50
2018-09-20T01:34:24.064Z,18.46
2018-09-20T01:36:53.835Z,18.39
2018-09-20T01:39:23.584Z,18.38
2018-09-20T01:41:53.413Z,18.36
2018-09-20T01:44:23.148Z,18.37
2018-09-20T01:46:52.914Z,18.38
2018-09-20T01:49:22.668Z,18.43
2018-09-20T01:51:52.412Z,18.43
2018-09-20T01:54:22.208Z,18.40
2018-09-20T01:56:51.924Z,18.36
2018-09-20T01:59:21.316Z,18.32
2018-09-20T02:01:50.695Z,18.30
2018-09-20T02:04:20.463Z,18.25
2018-09-20T02:06:50.201Z,18.19
2018-09-20T02:09:19.908Z,18.21
2018-09-20T02:11:49.706Z,18.21
2018-09-20T02:14:19.460Z,18.21
2018-09-20T02:16:49.198Z,18.19
2018-09-20T02:19:18.928Z,18.18
2018-09-20T02:21:48.737Z,18.23
2018-09-20T02:24:18.088Z,18.17
2018-09-20T02:26:47.859Z,18.05
2018-09-20T02:29:17.674Z,18.02
2018-09-20T02:31:47.475Z,18.06
2018-09-20T02:34:17.362Z,18.06
2018-09-20T02:36:47.148Z,18.02
2018-09-20T02:39:16.929Z,18.00
2018-09-20T02:41:46.681Z,17.96
2018-09-20T02:44:16.460Z,17.90
2018-09-20T02:46:46.331Z,17.85
2018-09-20T02:49:16.080Z,17.84
2018-09-20T02:51:45.884Z,17.86
2018-09-20T02:54:15.630Z,17.87
2018-09-20T02:56:45.382Z,17.86
2018-09-20T02:59:14.823Z,17.86
2018-09-20T03:01:44.606Z,17.84
2018-09-20T03:04:14.348Z,17.81
2018-09-20T03:06:44.134Z,17.78
2018-09-20T03:09:13.935Z,17.68
2018-09-20T03:11:43.680Z,17.65
2018-09-20T03:14:13.426Z,17.61
2018-09-20T03:16:43.160Z,17.67
2018-09-20T03:19:12.936Z,17.76
2018-09-20T03:21:42.658Z,17.74
2018-09-20T03:24:12.470Z,17.76
2018-09-20T03:26:42.242Z,17.73
2018-09-20T03:29:11.986Z,17.76
2018-09-20T03:31:41.699Z,17.79
2018-09-20T03:34:11.437Z,17.80
2018-09-20T03:36:41.171Z,17.83
2018-09-20T03:39:11.732Z,17.78
2018-09-20T03:41:41.995Z,17.80
2018-09-20T03:44:11.815Z,17.83
2018-09-20T03:46:41.567Z,17.77
2018-09-20T03:49:11.588Z,17.76
2018-09-20T03:51:41.497Z,17.70
2018-09-20T03:54:11.270Z,17.62
2018-09-20T03:56:41.134Z,17.60
2018-09-20T03:59:10.759Z,17.52
2018-09-20T04:01:40.485Z,17.49
2018-09-20T04:04:09.932Z,17.47
2018-09-20T04:06:41.012Z,17.48
2018-09-20T04:09:11.785Z,17.42
2018-09-20T04:11:41.775Z,17.38
2018-09-20T04:14:11.821Z,17.38
2018-09-20T04:16:41.403Z,17.33
2018-09-20T04:19:11.555Z,17.27
2018-09-20T04:21:41.530Z,17.21
2018-09-20T04:24:11.038Z,17.13
2018-09-20T04:27:12.874Z,17.08
2018-09-20T04:29:42.636Z,17.09
2018-09-20T04:32:13.019Z,17.08
2018-09-20T04:34:42.729Z,17.07
2018-09-20T04:37:12.467Z,17.09
2018-09-20T04:39:42.166Z,17.11
2018-09-20T04:42:12.067Z,17.14
2018-09-20T04:44:41.842Z,17.16
2018-09-20T04:47:11.545Z,17.16
2018-09-20T04:49:41.294Z,17.21
2018-09-20T04:52:11.079Z,17.21
2018-09-20T04:54:40.791Z,17.25
2018-09-20T04:57:10.574Z,17.26
2018-09-20T04:59:40.291Z,17.32
2018-09-20T05:02:09.701Z,17.40
2018-09-20T05:04:39.591Z,17.49
2018-09-20T05:07:09.335Z,17.54
2018-09-20T05:09:39.165Z,17.60
2018-09-20T05:12:08.871Z,17.73
2018-09-20T05:14:38.615Z,17.81
2018-09-20T05:17:08.367Z,17.91
2018-09-20T05:19:38.204Z,18.03
2018-09-20T05:22:07.991Z,18.13
2018-09-20T05:24:37.709Z,18.24
2018-09-20T05:27:07.410Z,18.33
2018-09-20T05:29:37.146Z,18.43
2018-09-20T05:32:06.855Z,18.50
2018-09-20T05:34:36.615Z,18.53
2018-09-20T05:37:06.418Z,18.61
2018-09-20T05:39:37.207Z,18.65
2018-09-20T05:42:06.975Z,18.71
2018-09-20T05:44:36.873Z,18.76
2018-09-20T05:47:06.798Z,18.83
2018-09-20T05:49:36.590Z,18.92
2018-09-20T05:52:07.270Z,19.05
2018-09-20T05:54:37.102Z,19.19
2018-09-20T05:57:06.902Z,19.36
2018-09-20T05:59:36.705Z,19.51
2018-09-20T06:02:06.510Z,19.69
2018-09-20T06:04:36.341Z,19.84
2018-09-20T06:07:06.160Z,19.95
2018-09-20T06:09:35.886Z,20.07
2018-09-20T06:12:05.629Z,20.17
2018-09-20T06:14:35.491Z,20.25
2018-09-20T06:17:05.314Z,20.32
2018-09-20T06:19:35.066Z,20.40
2018-09-20T06:22:04.831Z,20.45
2018-09-20T06:24:34.650Z,20.52
2018-09-20T06:27:04.557Z,20.59
2018-09-20T06:29:34.301Z,20.67
2018-09-20T06:32:04.036Z,20.75
2018-09-20T06:34:33.782Z,20.79
2018-09-20T06:37:03.554Z,20.87
2018-09-20T06:39:32.934Z,20.97
2018-09-20T06:42:02.749Z,21.04
2018-09-20T06:44:32.530Z,21.16
2018-09-20T06:47:02.338Z,21.28
2018-09-20T06:49:32.025Z,21.40
2018-09-20T06:52:01.815Z,21.54
2018-09-20T06:54:31.614Z,21.59
2018-09-20T06:57:01.437Z,21.61
2018-09-20T06:59:31.182Z,21.68
2018-09-20T07:02:01.038Z,21.84
2018-09-20T07:04:30.740Z,21.88
2018-09-20T07:07:00.478Z,21.92
2018-09-20T07:09:30.235Z,21.99
2018-09-20T07:11:59.937Z,22.12
2018-09-20T07:14:29.683Z,22.23
2018-09-20T07:16:59.526Z,22.40
2018-09-20T07:19:29.288Z,22.46
2018-09-20T07:21:58.991Z,22.52
2018-09-20T07:24:28.777Z,22.56
2018-09-20T07:26:58.570Z,22.58
2018-09-20T07:29:28.300Z,22.64
2018-09-20T07:31:58.106Z,22.76
2018-09-20T07:34:27.858Z,22.81
2018-09-20T07:36:57.619Z,22.78
2018-09-20T07:39:27.357Z,22.78
2018-09-20T07:41:57.094Z,22.79
2018-09-20T07:44:26.864Z,22.85
2018-09-20T07:46:56.552Z,22.83
2018-09-20T07:49:26.303Z,22.89
2018-09-20T07:51:56.011Z,22.88
2018-09-20T07:54:25.771Z,22.83
2018-09-20T07:56:55.564Z,22.88
2018-09-20T07:59:25.353Z,22.98
2018-09-20T08:01:55.236Z,23.00
2018-09-20T08:04:24.937Z,22.96
2018-09-20T08:06:54.675Z,23.04
2018-09-20T08:09:24.380Z,23.11
2018-09-20T08:11:54.167Z,23.20
2018-09-20T08:14:23.877Z,23.28
2018-09-20T08:16:53.673Z,23.36
2018-09-20T08:19:23.412Z,23.41
2018-09-20T08:21:53.253Z,23.46
2018-09-20T08:24:22.997Z,23.41
2018-09-20T08:26:52.755Z,23.38
2018-09-20T08:29:22.472Z,23.43
2018-09-20T08:31:52.222Z,23.48
2018-09-20T08:34:21.965Z,23.45
2018-09-20T08:36:51.717Z,23.50
2018-09-20T08:39:21.451Z,23.47
2018-09-20T08:41:51.165Z,23.50
2018-09-20T08:44:20.928Z,23.52
2018-09-20T08:46:50.644Z,23.55
2018-09-20T08:49:20.445Z,23.57
2018-09-20T08:51:50.195Z,23.59
2018-09-20T08:54:19.996Z,23.65
2018-09-20T08:56:49.837Z,23.70
2018-09-20T08:59:19.481Z,23.80
2018-09-20T09:01:49.228Z,23.83
2018-09-20T09:04:18.997Z,23.81
2018-09-20T09:06:48.856Z,23.88
2018-09-20T09:09:18.606Z,24.02
2018-09-20T09:11:48.366Z,24.15
2018-09-20T09:14:18.079Z,24.28
2018-09-20T09:16:47.825Z,24.40
2018-09-20T09:19:17.573Z,24.45
2018-09-20T09:21:47.300Z,24.41
2018-09-20T09:24:17.007Z,24.40
2018-09-20T09:26:46.693Z,24.59
2018-09-20T09:29:16.429Z,24.77
2018-09-20T09:31:46.095Z,24.97
2018-09-20T09:34:15.929Z,25.05
2018-09-20T09:36:45.571Z,25.21
2018-09-20T09:39:15.288Z,25.25
2018-09-20T09:41:45.444Z,25.18
2018-09-20T09:44:16.144Z,25.19
2018-09-20T09:46:45.872Z,25.16
2018-09-20T09:49:15.509Z,25.15
2018-09-20T09:51:45.252Z,25.22
2018-09-20T09:54:16.017Z,25.37
2018-09-20T09:56:45.753Z,25.49
2018-09-20T09:59:18.709Z,25.59
2018-09-20T10:01:48.452Z,25.64
2018-09-20T10:04:18.224Z,25.72
2018-09-20T10:06:47.988Z,25.75
2018-09-20T10:09:17.783Z,25.87
2018-09-20T10:11:47.512Z,26.01
2018-09-20T10:14:17.300Z,26.18
2018-09-20T10:16:47.075Z,26.42
2018-09-20T10:19:16.825Z,26.81
2018-09-20T10:21:46.563Z,27.29
2018-09-20T10:24:16.328Z,27.84
2018-09-20T10:26:46.061Z,28.34
2018-09-20T10:29:15.889Z,28.65
2018-09-20T10:31:45.621Z,29.01
2018-09-20T10:34:15.413Z,29.15
2018-09-20T10:36:45.158Z,29.19
2018-09-20T10:39:15.098Z,29.17
2018-09-20T10:41:44.803Z,28.90
2018-09-20T10:44:14.505Z,28.64
2018-09-20T10:46:44.212Z,28.34
2018-09-20T10:49:13.932Z,28.11
2018-09-20T10:51:43.647Z,28.03
2018-09-20T10:54:13.369Z,28.09
2018-09-20T10:56:43.215Z,28.15
2018-09-20T10:59:12.965Z,28.33
2018-09-20T11:01:42.713Z,28.48
2018-09-20T11:04:12.424Z,28.51
2018-09-20T11:06:42.221Z,28.59
2018-09-20T11:09:11.989Z,28.56
2018-09-20T11:11:41.715Z,28.46
2018-09-20T11:14:11.424Z,28.27
2018-09-20T11:16:41.197Z,28.05
2018-09-20T11:19:10.952Z,27.84
2018-09-20T11:21:40.759Z,27.69
2018-09-20T11:24:10.543Z,27.55
2018-09-20T11:26:40.272Z,27.49
2018-09-20T11:29:10.080Z,27.49
2018-09-20T11:31:39.844Z,27.58
2018-09-20T11:34:09.710Z,27.69
2018-09-20T11:36:39.561Z,27.80
2018-09-20T11:39:12.118Z,27.95
2018-09-20T11:41:42.131Z,27.93
2018-09-20T11:44:11.856Z,27.96
2018-09-20T11:46:41.662Z,27.99
2018-09-20T11:49:11.356Z,28.14
2018-09-20T11:51:41.084Z,28.30
2018-09-20T11:54:10.804Z,28.45
2018-09-20T11:56:40.546Z,28.51
2018-09-20T11:59:10.260Z,28.48
2018-09-20T12:01:40.021Z,28.41
2018-09-20T12:04:09.736Z,28.35
2018-09-20T12:06:39.508Z,28.35
2018-09-20T12:09:09.264Z,28.32
2018-09-20T12:11:39.048Z,28.38
2018-09-20T12:14:09.016Z,28.44
2018-09-20T12:16:38.768Z,28.42
2018-09-20T12:19:09.113Z,28.39
2018-09-20T12:21:38.846Z,28.39
2018-09-20T12:24:08.632Z,28.35
2018-09-20T12:26:38.356Z,28.40
2018-09-20T12:29:08.139Z,28.50
2018-09-20T12:31:37.931Z,28.59
2018-09-20T12:34:07.793Z,28.73
2018-09-20T12:36:37.567Z,28.90
2018-09-20T12:39:12.922Z,28.92
2018-09-20T12:41:43.461Z,28.98
2018-09-20T12:44:13.123Z,29.02
2018-09-20T12:46:42.855Z,29.12
2018-09-20T12:49:13.096Z,29.31
2018-09-20T12:51:42.807Z,29.39
2018-09-20T12:54:12.501Z,29.45
2018-09-20T12:56:42.313Z,29.59
2018-09-20T12:59:12.029Z,29.78
2018-09-20T13:01:41.783Z,29.93
2018-09-20T13:04:11.556Z,30.15
2018-09-20T13:06:41.344Z,30.20
2018-09-20T13:09:11.471Z,30.24
2018-09-20T13:11:41.351Z,30.34
2018-09-20T13:14:11.081Z,30.33
2018-09-20T13:16:40.871Z,30.23
2018-09-20T13:19:10.627Z,30.15
2018-09-20T13:21:40.436Z,29.90
2018-09-20T13:24:10.327Z,29.97
2018-09-20T13:26:40.135Z,29.88
2018-09-20T13:29:09.893Z,29.82
2018-09-20T13:31:39.667Z,29.87
2018-09-20T13:34:09.478Z,29.91
2018-09-20T13:36:39.286Z,29.95
2018-09-20T13:39:11.906Z,30.00
2018-09-20T13:41:41.829Z,30.00
2018-09-20T13:44:11.675Z,30.04
2018-09-20T13:46:41.474Z,29.94
2018-09-20T13:49:11.278Z,29.93
2018-09-20T13:51:41.062Z,29.85
2018-09-20T13:54:10.826Z,29.70
2018-09-20T13:56:40.654Z,29.55
2018-09-20T13:59:10.553Z,29.49
2018-09-20T14:01:40.266Z,29.48
2018-09-20T14:04:10.031Z,29.45
2018-09-20T14:06:39.774Z,29.35
2018-09-20T14:09:11.910Z,29.25
2018-09-20T14:11:41.922Z,29.16
2018-09-20T14:14:11.673Z,29.03
2018-09-20T14:16:41.404Z,28.92
2018-09-20T14:19:11.137Z,28.87
2018-09-20T14:21:40.841Z,28.77
2018-09-20T14:24:10.617Z,28.68
2018-09-20T14:26:40.296Z,28.73
2018-09-20T14:29:10.057Z,28.72
2018-09-20T14:31:39.887Z,28.67
2018-09-20T14:34:09.688Z,28.66
2018-09-20T14:36:39.433Z,28.58
2018-09-20T14:39:11.289Z,28.60
2018-09-20T14:41:41.581Z,28.60
2018-09-20T14:44:11.359Z,28.56
2018-09-20T14:46:41.069Z,28.58
2018-09-20T14:49:10.803Z,28.58
2018-09-20T14:51:40.545Z,28.68
2018-09-20T14:54:10.279Z,28.58
2018-09-20T14:56:40.007Z,28.48
2018-09-20T14:59:09.862Z,28.39
2018-09-20T15:01:39.631Z,28.45
2018-09-20T15:04:09.418Z,28.45
2018-09-20T15:06:39.161Z,28.43
2018-09-20T15:09:12.787Z,28.39
2018-09-20T15:11:42.610Z,28.40
2018-09-20T15:14:12.469Z,28.40
2018-09-20T15:16:42.281Z,28.41
2018-09-20T15:19:12.000Z,28.33
2018-09-20T15:21:41.759Z,28.31
2018-09-20T15:24:11.478Z,28.43
2018-09-20T15:26:41.235Z,28.44
2018-09-20T15:29:10.989Z,28.52
2018-09-20T15:31:40.766Z,28.57
2018-09-20T15:34:10.490Z,28.34
2018-09-20T15:36:40.255Z,28.23
2018-09-20T15:39:12.230Z,28.04
2018-09-20T15:41:42.040Z,27.98
2018-09-20T15:44:12.476Z,27.93
2018-09-20T15:46:42.233Z,27.95
2018-09-20T15:49:12.150Z,27.92
2018-09-20T15:51:42.494Z,27.87
2018-09-20T15:54:12.238Z,27.74
2018-09-20T15:56:42.001Z,27.73
2018-09-20T15:59:11.742Z,27.76
2018-09-20T16:01:41.600Z,27.74
2018-09-20T16:04:11.446Z,27.99
2018-09-20T16:06:41.298Z,27.98
2018-09-20T16:09:12.198Z,27.83
2018-09-20T16:11:42.010Z,27.68
2018-09-20T16:14:11.781Z,27.42
2018-09-20T16:16:41.555Z,27.24
2018-09-20T16:19:11.383Z,27.09
2018-09-20T16:21:41.167Z,27.08
2018-09-20T16:24:10.948Z,26.93
2018-09-20T16:26:40.643Z,26.72
2018-09-20T16:31:31.860Z,26.60
2018-09-20T16:34:31.983Z,26.23
2018-09-20T16:37:49.574Z,26.05
2018-09-20T16:40:21.791Z,25.93
2018-09-20T16:42:52.747Z,25.97
2018-09-20T16:45:22.501Z,25.84
2018-09-20T16:47:52.362Z,25.55
2018-09-20T16:50:22.181Z,25.33
2018-09-20T16:52:52.637Z,25.19
2018-09-20T16:55:22.654Z,25.23
2018-09-20T16:57:52.612Z,25.05
2018-09-20T17:00:22.450Z,24.97
2018-09-20T17:02:52.319Z,24.88
2018-09-20T17:05:22.100Z,24.73
2018-09-20T17:07:51.954Z,24.51
2018-09-20T17:10:22.690Z,24.28
2018-09-20T17:12:53.019Z,24.13
2018-09-20T17:15:22.956Z,24.04
2018-09-20T17:17:52.906Z,23.96
2018-09-20T17:20:22.820Z,24.01
2018-09-20T17:22:52.687Z,23.92
2018-09-20T17:25:22.645Z,23.73
2018-09-20T17:27:52.714Z,23.56
2018-09-20T17:30:24.603Z,23.46
2018-09-20T17:32:55.691Z,23.37
2018-09-20T17:35:26.420Z,23.25
2018-09-20T17:38:02.997Z,23.16
2018-09-20T17:40:34.663Z,23.08
2018-09-20T17:43:07.152Z,23.04
2018-09-20T17:45:37.071Z,23.05
2018-09-20T17:48:09.552Z,22.90
2018-09-20T17:50:41.406Z,22.79
2018-09-20T17:53:14.897Z,22.68
2018-09-20T17:55:46.083Z,22.58
2018-09-20T17:58:17.123Z,22.54
2018-09-20T18:00:47.546Z,22.46
2018-09-20T18:03:17.522Z,22.40
2018-09-20T18:05:49.480Z,22.35
2018-09-20T18:08:20.770Z,22.31
2018-09-20T18:10:50.805Z,22.28
2018-09-20T18:13:21.039Z,22.23
2018-09-20T18:15:51.189Z,22.22
2018-09-20T18:18:21.383Z,22.14
2018-09-20T18:20:52.403Z,22.10
2018-09-20T18:23:22.595Z,22.16
2018-09-20T18:25:52.488Z,22.15
2018-09-20T18:28:22.733Z,22.26
2018-09-20T18:30:52.681Z,22.16
2018-09-20T18:33:22.269Z,22.10
2018-09-20T18:35:52.032Z,22.03
2018-09-20T18:38:22.650Z,21.98
2018-09-20T18:40:54.758Z,21.97
2018-09-20T18:43:26.323Z,22.11
2018-09-20T18:45:58.759Z,22.20
2018-09-20T18:48:28.736Z,22.01
2018-09-20T18:50:58.916Z,21.89
2018-09-20T18:53:30.636Z,21.75
2018-09-20T18:56:00.584Z,21.67
2018-09-20T18:58:31.407Z,21.63
2018-09-20T19:01:01.599Z,21.56
2018-09-20T19:03:33.675Z,21.59
2018-09-20T19:06:04.997Z,21.53
2018-09-20T19:08:35.649Z,21.45
2018-09-20T19:11:05.738Z,21.44
2018-09-20T19:13:35.324Z,21.46
2018-09-20T19:16:05.284Z,21.49
2018-09-20T19:18:35.188Z,21.42
2018-09-20T19:21:05.187Z,21.45
2018-09-20T19:23:35.300Z,21.41
2018-09-20T19:26:05.163Z,21.34
2018-09-20T19:28:35.024Z,21.25
2018-09-20T19:31:04.889Z,21.24
2018-09-20T19:33:37.272Z,21.20
2018-09-20T19:36:08.107Z,21.09
2018-09-20T19:38:38.068Z,21.05
2018-09-20T19:41:07.550Z,21.03
2018-09-20T19:43:37.364Z,21.00
2018-09-20T19:46:07.343Z,20.97
2018-09-20T19:48:37.222Z,20.98
2018-09-20T19:51:07.090Z,20.96
2018-09-20T19:53:36.864Z,20.92
2018-09-20T19:56:06.708Z,20.97
2018-09-20T19:58:36.560Z,20.98
2018-09-20T20:01:06.476Z,21.05
2018-09-20T20:03:36.351Z,21.05
2018-09-20T20:06:06.179Z,21.08
2018-09-20T20:08:36.082Z,21.02
2018-09-20T20:11:05.885Z,20.97
2018-09-20T20:13:35.709Z,20.92
2018-09-20T20:16:05.553Z,20.91
2018-09-20T20:18:35.336Z,20.90
2018-09-20T20:21:05.174Z,20.82
2018-09-20T20:23:34.726Z,20.78
2018-09-20T20:26:04.533Z,20.73
2018-09-20T20:28:34.403Z,20.72
2018-09-20T20:31:04.208Z,20.69
2018-09-20T20:33:34.382Z,20.70
2018-09-20T20:36:03.791Z,20.68
2018-09-20T20:38:33.618Z,20.63
2018-09-20T20:41:03.028Z,20.61
2018-09-20T20:43:32.962Z,20.66
2018-09-20T20:46:02.832Z,20.63
2018-09-20T20:48:32.681Z,20.58
2018-09-20T20:51:02.478Z,20.60
2018-09-20T20:53:32.389Z,20.58
2018-09-20T20:56:02.299Z,20.55
2018-09-20T20:58:32.720Z,20.52
2018-09-20T21:01:02.678Z,20.72
2018-09-20T21:03:32.533Z,20.62
2018-09-20T21:06:02.346Z,20.56
2018-09-20T21:08:32.040Z,20.50
2018-09-20T21:11:01.764Z,20.48
2018-09-20T21:13:31.546Z,20.49
2018-09-20T21:16:01.325Z,20.44
2018-09-20T21:18:31.099Z,20.40
2018-09-20T21:21:00.830Z,20.37
2018-09-20T21:23:30.633Z,20.28
2018-09-20T21:26:00.357Z,20.28
2018-09-20T21:28:29.773Z,20.16
2018-09-20T21:30:59.501Z,20.29
2018-09-20T21:33:28.919Z,20.21
2018-09-20T21:35:58.349Z,20.14
2018-09-20T21:38:28.181Z,20.10
2018-09-20T21:40:57.922Z,20.01
2018-09-20T21:43:27.739Z,19.91
2018-09-20T21:45:57.519Z,19.84
2018-09-20T21:48:26.991Z,19.83
2018-09-20T21:50:56.858Z,19.91
2018-09-20T21:53:26.671Z,19.86
2018-09-20T21:55:56.462Z,19.77
2018-09-20T21:58:26.275Z,19.72
2018-09-20T22:01:01.613Z,19.72
2018-09-20T22:03:32.519Z,19.75
2018-09-20T22:06:02.344Z,19.68
2018-09-20T22:08:31.715Z,19.63
2018-09-20T22:11:01.455Z,19.59
2018-09-20T22:13:31.170Z,19.61
2018-09-20T22:16:00.950Z,19.62
2018-09-20T22:18:30.738Z,19.56
2018-09-20T22:21:00.542Z,19.51
2018-09-20T22:23:30.236Z,19.46
2018-09-20T22:25:59.993Z,19.44
2018-09-20T22:28:29.806Z,19.42
2018-09-20T22:30:59.528Z,19.39
2018-09-20T22:33:29.236Z,19.40
2018-09-20T22:35:58.588Z,19.42
2018-09-20T22:38:28.338Z,19.41
2018-09-20T22:40:58.033Z,19.34
2018-09-20T22:43:28.107Z,19.34
2018-09-20T22:45:57.861Z,19.33
2018-09-20T22:48:27.624Z,19.30
2018-09-20T22:50:57.358Z,19.23
2018-09-20T22:53:27.107Z,19.22
2018-09-20T22:55:56.847Z,19.19
2018-09-20T22:58:26.652Z,19.13
2018-09-20T23:00:56.122Z,19.07
2018-09-20T23:03:25.850Z,19.09
2018-09-20T23:05:55.584Z,19.03
2018-09-20T23:08:25.332Z,19.03
2018-09-20T23:10:55.142Z,19.04
2018-09-20T23:13:24.907Z,19.19
2018-09-20T23:15:54.269Z,19.11
2018-09-20T23:18:24.023Z,19.04
2018-09-20T23:20:53.758Z,19.04
2018-09-20T23:23:23.466Z,19.05
2018-09-20T23:25:53.140Z,18.91
2018-09-20T23:28:22.918Z,18.87
2018-09-20T23:30:52.333Z,18.87
2018-09-20T23:33:22.162Z,18.86
2018-09-20T23:35:51.890Z,18.75
2018-09-20T23:38:21.632Z,18.72
2018-09-20T23:40:51.826Z,18.69
2018-09-20T23:43:21.189Z,18.68
2018-09-20T23:45:50.876Z,18.65
2018-09-20T23:48:20.669Z,18.67
2018-09-20T23:50:50.329Z,18.64
2018-09-20T23:53:20.062Z,18.64
2018-09-20T23:55:49.515Z,18.59
2018-09-20T23:58:19.290Z,18.57
